Latest Coastal Weather Observations for Devonport Airport

IDT60701

Issued at 12:32 am EST Wednesday 4 May 2016 (issued every 10 minutes, with the page automatically refreshed every 10 minutes)

About coastal observations | Map of coastal stations | Coastal observations for TAS | Marine services | Other Formats
Station Details ID: 091126 Name: DEVONPORT AIRPORT Lat: -41.17 Lon: 146.43 Height: 8.0 m
Data from the previous 72 hours. | See also: Recent months at Devonport Airport
Date/Time
EST
Temp

°C
Wind Pressure Rain
since 9am
mm
Weather Cloud Vis
km
Sea
Height
m
Swell
Dir
 
Speed
knots
Gust
knots
hPa Trend Height
m
Period
s
Dir
04/12:30am 9.3 W 16 21 1001.4 - 6.8 - - 10 - - - -
04/12:00am 9.7 W 20 28 1001.1 - 6.8 - - 10 - - - -
 
Date/Time
EST
Temp

°C
Wind Pressure Rain
since 9am
mm
Weather Cloud Vis
km
Sea
Height
m
Swell
Dir
 
Speed
knots
Gust
knots
hPa Trend Height
m
Period
s
Dir
03/11:30pm 9.4 WNW 19 24 1000.8 - 6.8 - - 10 - - - -
03/11:00pm 9.2 WNW 15 19 1000.5 - 6.8 - Partly cloudy 10 - - - -
03/10:30pm 9.4 W 21 26 1000.4 - 6.8 - Partly cloudy 10 - - - -
03/10:16pm 9.4 W 15 27 1000.3 - 6.8 - Partly cloudy 10 - - - -
03/10:00pm 8.9 W 15 18 1000.5 - 6.8 - Partly cloudy 10 - - - -
03/09:30pm 9.1 W 16 20 1000.0 - 6.8 - Partly cloudy 10 - - - -
03/09:00pm 8.9 WNW 17 21 999.4 - 6.8 Showers Partly cloudy 10 - - - -
03/08:42pm 9.5 W 23 35 999.6 - 6.6 - Partly cloudy 10 - - - -
03/08:30pm 10.3 WNW 21 28 999.1 - 6.4 - - 10 - - - -
03/08:00pm 10.3 WNW 26 34 998.3 - 6.4 - Partly cloudy 10 - - - -
03/07:46pm 10.3 WNW 21 33 997.9 - 6.4 - Partly cloudy 10 - - - -
03/07:30pm 10.5 WNW 20 24 997.7 - 6.4 - - 10 - - - -
03/07:00pm 10.3 WNW 19 24 997.1 - 6.4 - Partly cloudy 10 - - - -
03/06:30pm 9.7 W 15 20 996.8 - 6.4 - Partly cloudy 10 - - - -
03/06:00pm 10.2 WNW 19 25 995.9 - 6.4 - Mostly cloudy 10 - - - -
03/05:30pm 10.3 W 17 23 995.0 - 6.4 - Partly cloudy 10 - - - -
03/05:00pm 10.1 W 13 17 994.4 - 6.4 - Partly cloudy 10 - - - -
03/04:30pm 10.2 W 15 19 994.0 - 6.4 - Partly cloudy 10 - - - -
03/04:00pm 10.7 W 17 25 993.2 - 6.2 - Partly cloudy 10 - - - -
03/03:30pm 11.3 W 15 17 992.3 - 6.0 - Partly cloudy 10 - - - -
03/03:00pm 11.5 W 17 22 991.6 - 5.8 Rain Cloudy 8 - - - -
03/02:30pm 12.7 W 18 23 991.2 - 5.6 - Partly cloudy 10 - - - -
03/02:00pm 13.6 WNW 23 29 990.6 - 5.6 - Partly cloudy 10 - - - -
03/01:30pm 13.3 WNW 26 32 991.2 - 5.6 - Partly cloudy 10 - - - -
03/01:00pm 13.8 WNW 24 32 991.1 - 5.4 - Partly cloudy 10 - - - -
03/12:30pm 14.2 WNW 21 27 991.4 - 5.4 - Partly cloudy 10 - - - -
03/12:00pm 14.0 WNW 18 23 991.1 - 5.4 Showers Cloudy 8 - - - -
03/11:30am 14.0 WNW 22 28 990.7 - 5.4 - Partly cloudy 10 - - - -
03/11:18am 13.6 WNW 22 27 991.3 - 5.2 - Partly cloudy 8 - - - -
03/11:09am 13.7 WNW 19 25 991.4 - 5.2 - Partly cloudy 7 - - - -
03/11:00am 13.3 WNW 24 33 991.3 - 4.8 - Partly cloudy 4 - - - -
03/10:55am 13.9 NW 28 37 991.2 - 4.4 - Partly cloudy 3 - - - -
03/10:42am 14.1 NW 34 44 990.6 - 3.4 - Partly cloudy 3 - - - -
03/10:38am 15.4 NW 34 43 990.2 - 2.6 - Partly cloudy 6 - - - -
03/10:30am 15.5 NW 36 48 990.1 - 2.2 - Partly cloudy 5 - - - -
03/10:20am 15.4 NW 35 47 990.2 - 2.0 - Partly cloudy 7 - - - -
03/10:00am 14.7 NW 33 45 990.7 - 1.8 - Partly cloudy 5 - - - -
03/09:30am 14.7 NW 27 37 991.1 - 1.0 - Partly cloudy 5 - - - -
03/09:05am 14.4 NW 25 35 991.7 - 0.0 - Partly cloudy 6 - - - -
03/09:00am 14.3 NW 27 35 991.7 - 8.8 Drizzle Cloudy 6 - - - -
03/08:55am 14.2 NW 28 34 991.8 - 8.6 - Partly cloudy 6 - - - -
03/08:53am 14.2 NW 28 34 991.9 - 8.6 - Partly cloudy 7 - - - -
03/08:30am 14.3 NW 23 29 992.1 - 8.2 - Partly cloudy 5 - - - -
03/08:02am 14.1 WNW 23 36 992.5 - 7.0 - Partly cloudy 4 - - - -
03/08:00am 14.2 WNW 22 31 992.5 - 7.0 - Partly cloudy 5 - - - -
03/07:57am 14.3 WNW 21 31 992.5 - 6.6 - Partly cloudy 6 - - - -
03/07:50am 14.2 WNW 25 32 992.4 - 6.4 - Partly cloudy 6 - - - -
03/07:49am 14.2 WNW 25 32 992.5 - 6.4 - Partly cloudy 6 - - - -
03/07:35am 14.2 NW 27 38 992.7 - 6.0 - Partly cloudy 9 - - - -
03/07:32am 14.2 NW 27 38 992.5 - 6.0 - Partly cloudy 8 - - - -
03/07:30am 14.3 NW 27 33 992.6 - 6.0 - Partly cloudy 8 - - - -
03/07:25am 14.1 NW 28 38 992.6 - 5.8 - Partly cloudy 6 - - - -
03/07:12am 14.3 NW 30 39 992.5 - 5.8 - Partly cloudy 6 - - - -
03/07:03am 14.5 NW 29 40 992.5 - 5.8 - Partly cloudy 7 - - - -
03/07:00am 14.5 NW 28 40 992.6 - 5.8 - Partly cloudy 7 - - - -
03/06:56am 14.6 NW 27 37 992.6 - 5.8 - Partly cloudy 7 - - - -
03/06:38am 14.0 NW 30 43 992.7 - 5.6 - Partly cloudy 3 - - - -
03/06:30am 13.9 NW 37 51 992.5 - 4.8 - Partly cloudy 2 - - - -
03/06:00am 16.2 NNW 36 49 991.6 - 3.0 Showers Cloudy 7 - - - -
03/05:33am 16.2 NNW 41 54 991.9 - 3.0 - Partly cloudy 6 - - - -
03/05:30am 16.4 NNW 41 55 991.8 - 3.0 - Partly cloudy 7 - - - -
03/05:00am 16.9 NNW 39 50 992.1 - 3.0 - Partly cloudy 9 - - - -
03/04:30am 16.9 NNW 38 49 992.6 - 3.0 - Cloudy 9 - - - -
03/04:00am 16.7 NNW 38 51 992.9 - 3.0 - Partly cloudy 10 - - - -
03/03:30am 16.5 NNW 37 48 993.8 - 3.0 - Partly cloudy 10 - - - -
03/03:19am 16.0 NNW 36 54 993.9 - 3.0 - Partly cloudy 10 - - - -
03/03:00am 15.6 NNW 38 50 994.0 - 3.0 Drizzle Cloudy 5 - - - -
03/02:58am 15.7 NNW 37 49 994.2 - 3.0 - Partly cloudy 6 - - - -
03/02:31am 16.7 NNW 36 46 994.8 - 3.0 - Partly cloudy 10 - - - -
03/02:30am 16.7 NNW 37 46 994.8 - 3.0 - Partly cloudy 10 - - - -
03/02:00am 16.9 NNW 34 44 995.4 - 3.0 - Cloudy 10 - - - -
03/01:30am 16.9 NNW 35 47 996.3 - 3.0 - Partly cloudy 10 - - - -
03/01:02am 16.8 NNW 31 43 996.9 - 3.0 - Cloudy 10 - - - -
03/01:00am 16.7 NNW 30 39 997.1 - 3.0 - Cloudy 10 - - - -
03/12:30am 16.9 NNW 34 48 997.1 - 3.0 - Partly cloudy 10 - - - -
03/12:00am 16.8 NNW 34 44 998.1 - 3.0 - Cloudy 10 - - - -
 
Date/Time
EST
Temp

°C
Wind Pressure Rain
since 9am
mm
Weather Cloud Vis
km
Sea
Height
m
Swell
Dir
 
Speed
knots
Gust
knots
hPa Trend Height
m
Period
s
Dir
02/11:30pm 16.8 NNW 29 39 998.7 - 3.0 - Partly cloudy 10 - - - -
02/11:02pm 16.9 NNW 33 43 998.9 - 3.0 - Partly cloudy 10 - - - -
02/11:00pm 16.9 NNW 33 42 999.0 - 3.0 - Partly cloudy 10 - - - -
02/10:36pm 16.8 NNW 34 44 999.1 - 3.0 - Partly cloudy 10 - - - -
02/10:30pm 16.8 NNW 34 43 999.1 - 3.0 - Partly cloudy 10 - - - -
02/10:06pm 16.7 NNW 34 45 999.4 - 3.0 - Partly cloudy 10 - - - -
02/10:00pm 16.8 NNW 33 41 999.6 - 3.0 - Partly cloudy 10 - - - -
02/09:30pm 16.7 NNW 32 45 1000.1 - 3.0 - Partly cloudy 10 - - - -
02/09:00pm 16.7 NW 33 44 1000.4 - 3.0 Recent precip. Cloudy 10 - - - -
02/08:30pm 16.2 NNW 32 43 1000.6 - 3.0 - Partly cloudy 10 - - - -
02/08:10pm 16.6 NNW 32 42 1000.7 - 2.6 - Partly cloudy 10 - - - -
02/08:00pm 16.6 NNW 31 40 1000.9 - 2.6 - Partly cloudy 10 - - - -
02/07:30pm 16.3 NW 32 47 1001.0 - 2.6 - Partly cloudy 10 - - - -
02/07:01pm 15.2 NNW 30 40 1001.4 - 2.6 - Partly cloudy 10 - - - -
02/07:00pm 15.2 NNW 31 40 1001.4 - 2.6 - Partly cloudy 10 - - - -
02/06:36pm 15.6 NNW 29 39 1001.3 - 2.6 - Partly cloudy 10 - - - -
02/06:30pm 15.4 NW 29 40 1001.5 - 2.6 - Partly cloudy 7 - - - -
02/06:28pm 15.4 NW 30 40 1001.6 - 2.6 - Partly cloudy 7 - - - -
02/06:25pm 14.8 NNW 31 40 1001.6 - 2.6 - Partly cloudy 6 - - - -
02/06:00pm 15.6 NNW 30 41 1001.6 - 2.2 Drizzle Mostly cloudy 10 - - - -
02/05:30pm 15.5 NNW 28 38 1001.8 - 2.2 - Partly cloudy 10 - - - -
02/05:13pm 15.1 NNW 28 38 1001.9 - 2.2 - Partly cloudy 8 - - - -
02/05:00pm 15.7 NNW 29 38 1002.0 - 2.2 - Partly cloudy 10 - - - -
02/04:46pm 15.7 NW 30 40 1002.0 - 2.2 - Partly cloudy 10 - - - -
02/04:30pm 15.8 NW 29 36 1002.2 - 2.2 - Partly cloudy 10 - - - -
02/04:00pm 15.6 NW 29 39 1002.4 - 2.2 - Partly cloudy 10 - - - -
02/03:46pm 15.7 NW 29 39 1002.6 - 2.2 - Partly cloudy 10 - - - -
02/03:30pm 15.5 NW 29 37 1002.6 - 2.2 - Partly cloudy 10 - - - -
02/03:00pm 15.8 NW 30 39 1002.7 - 2.2 - Cloudy 10 - - - -
02/02:30pm 15.9 NW 29 38 1002.9 - 2.2 - Partly cloudy 10 - - - -
02/02:00pm 15.7 NW 29 40 1003.1 - 2.2 - Partly cloudy 10 - - - -
02/01:38pm 15.2 NW 28 39 1002.7 - 2.2 - Partly cloudy 10 - - - -
02/01:31pm 14.2 NW 28 38 1003.1 - 2.2 - Partly cloudy 10 - - - -
02/01:30pm 14.1 NW 29 38 1003.2 - 2.2 - Partly cloudy 10 - - - -
02/01:21pm 14.0 NW 26 37 1003.4 - 2.2 - Partly cloudy 6 - - - -
02/01:04pm 14.8 NW 25 35 1003.7 - 1.6 - Partly cloudy 10 - - - -
02/01:00pm 15.2 NW 24 32 1003.6 - 1.6 - Partly cloudy 10 - - - -
02/12:47pm 14.8 WNW 20 30 1004.0 - 1.6 - Partly cloudy 10 - - - -
02/12:35pm 12.7 WNW 24 30 1004.4 - 1.6 - Partly cloudy 9 - - - -
02/12:30pm 13.1 WNW 23 30 1004.5 - 1.4 - Partly cloudy 10 - - - -
02/12:07pm 13.0 NW 21 32 1004.9 - 0.8 - Partly cloudy 5 - - - -
02/12:01pm 14.0 WNW 16 31 1004.9 - 0.6 - Partly cloudy 10 - - - -
02/12:00pm 14.0 WNW 16 21 1004.9 - 0.6 Showers Cloudy 10 - - - -
02/11:59am 13.8 WNW 15 21 1004.9 - 0.6 - Partly cloudy 10 - - - -
02/11:42am 12.7 WNW 18 25 1005.3 - 0.4 - Partly cloudy 6 - - - -
02/11:30am 15.2 WNW 16 20 1005.4 - 0.0 - Partly cloudy 10 - - - -
02/11:00am 12.8 WNW 13 21 1006.2 - 0.0 - Partly cloudy 10 - - - -
02/10:30am 13.9 WNW 13 17 1006.2 - 0.0 - Partly cloudy 10 - - - -
02/10:00am 13.4 WNW 13 16 1006.6 - 0.0 - Partly cloudy 10 - - - -
02/09:30am 13.5 WNW 15 17 1006.6 - 0.0 - Partly cloudy 10 - - - -
02/09:00am 12.8 WNW 15 19 1006.8 - 5.2 - Mostly clear 10 - - - -
02/08:30am 12.4 WNW 15 19 1006.9 - 5.2 - Partly cloudy 10 - - - -
02/08:00am 11.8 WNW 17 22 1007.0 - 5.2 - Partly cloudy 10 - - - -
02/07:30am 11.4 WNW 13 17 1006.8 - 5.2 - Partly cloudy 10 - - - -
02/07:00am 11.0 W 14 17 1006.9 - 5.2 - Partly cloudy 10 - - - -
02/06:30am 10.5 W 13 16 1006.8 - 5.2 - - 10 - - - -
02/06:00am 9.7 WSW 8 12 1007.0 - 5.2 - Partly cloudy 10 - - - -
02/05:30am 10.2 W 8 13 1007.3 - 5.2 - Partly cloudy 10 - - - -
02/05:00am 10.0 W 12 15 1007.3 - 5.2 - Partly cloudy 10 - - - -
02/04:30am 10.6 WNW 15 21 1007.1 - 5.2 - Partly cloudy 10 - - - -
02/04:00am 10.4 W 15 20 1007.1 - 5.2 - - 10 - - - -
02/03:30am 10.2 WNW 14 18 1007.2 - 5.2 - - 10 - - - -
02/03:00am 10.2 W 14 17 1007.3 - 5.2 - - 10 - - - -
02/02:30am 10.0 W 12 17 1007.6 - 5.2 - Partly cloudy 10 - - - -
02/02:00am 9.5 W 11 16 1007.4 - 5.2 - - 10 - - - -
02/01:30am 9.7 W 15 21 1007.3 - 5.2 - Partly cloudy 10 - - - -
02/01:00am 10.0 W 16 21 1007.2 - 5.2 - Partly cloudy 10 - - - -
02/12:30am 10.3 W 18 23 1007.1 - 5.2 - Partly cloudy 10 - - - -
02/12:00am 10.4 WNW 18 25 1007.1 - 5.2 - Mostly clear 10 - - - -
 
Date/Time
EST
Temp

°C
Wind Pressure Rain
since 9am
mm
Weather Cloud Vis
km
Sea
Height
m
Swell
Dir
 
Speed
knots
Gust
knots
hPa Trend Height
m
Period
s
Dir
01/11:30pm 10.2 W 17 21 1006.8 - 5.2 - - 10 - - - -
01/11:00pm 10.1 W 13 18 1006.9 - 5.2 - - 10 - - - -
01/10:30pm 9.9 W 15 21 1006.8 - 5.2 - - 10 - - - -
01/10:00pm 10.4 W 15 19 1006.7 - 5.2 - - 10 - - - -
01/09:30pm 10.4 W 14 19 1006.5 - 5.2 - Partly cloudy 10 - - - -
01/09:00pm 10.3 W 15 20 1005.9 - 5.2 - - 10 - - - -
01/08:30pm 10.6 W 19 25 1004.9 - 5.2 - - 10 - - - -
01/08:00pm 10.8 W 14 19 1004.8 - 5.2 - - 10 - - - -
01/07:30pm 11.0 W 18 29 1004.3 - 5.2 - - 10 - - - -
01/07:10pm 11.4 W 18 28 1003.6 - 5.2 - - 10 - - - -
01/07:00pm 11.2 W 17 22 1003.5 - 5.2 - - 10 - - - -
01/06:40pm 11.8 W 17 27 1003.0 - 5.2 - - 10 - - - -
01/06:30pm 11.9 W 19 27 1002.6 - 5.2 - - 10 - - - -
01/06:00pm 12.1 W 19 30 1001.5 - 5.2 - Cloudy 10 - - - -
01/05:52pm 12.3 W 20 30 1001.1 - 5.2 - Partly cloudy 10 - - - -
01/05:30pm 12.6 W 22 29 1000.4 - 5.2 - Partly cloudy 10 - - - -
01/05:10pm 12.6 W 19 29 999.8 - 5.2 - Partly cloudy 10 - - - -
01/05:00pm 12.9 W 22 29 999.3 - 5.2 - Partly cloudy 10 - - - -
01/04:30pm 12.9 W 24 34 998.8 - 5.2 - Partly cloudy 10 - - - -
01/04:00pm 12.9 W 22 34 997.8 - 5.2 - - 10 - - - -
01/03:38pm 13.0 W 21 32 997.2 - 5.2 - Partly cloudy 10 - - - -
01/03:30pm 13.0 W 20 26 997.2 - 5.2 - Partly cloudy 10 - - - -
01/03:01pm 12.9 W 24 35 996.3 - 5.2 - - 10 - - - -
01/03:00pm 12.9 W 24 33 996.4 - 5.2 - Cloudy 10 - - - -
01/02:36pm 12.5 W 23 33 995.9 - 5.2 - - 10 - - - -
01/02:30pm 12.5 W 26 34 995.7 - 5.2 - - 10 - - - -
01/02:01pm 12.6 W 26 38 994.8 - 5.2 - Partly cloudy 10 - - - -
01/02:00pm 12.6 W 26 33 994.8 - 5.2 - Partly cloudy 10 - - - -
01/01:30pm 12.9 W 28 40 993.3 - 5.2 - Partly cloudy 10 - - - -
01/01:24pm 13.1 W 30 40 993.3 - 5.2 - Partly cloudy 10 - - - -
01/01:15pm 13.0 W 33 43 993.4 - 5.2 - Partly cloudy 7 - - - -
01/01:14pm 12.9 W 34 43 993.4 - 5.2 - Partly cloudy 6 - - - -
01/01:00pm 14.4 WNW 29 43 992.5 - 5.2 - Partly cloudy 10 - - - -
01/12:41pm 13.7 WNW 30 40 992.2 - 5.2 - Partly cloudy 6 - - - -
01/12:36pm 15.2 WNW 28 38 991.9 - 4.8 - Partly cloudy 10 - - - -
01/12:30pm 15.6 WNW 28 35 991.7 - 4.8 - Partly cloudy 10 - - - -
01/12:07pm 16.5 NW 27 38 991.4 - 4.8 - Partly cloudy 10 - - - -
01/12:00pm 16.3 NW 27 34 991.6 - 4.8 - Mostly clear 10 - - - -
01/11:32am 16.1 NW 24 30 992.5 - 4.8 - Partly cloudy 10 - - - -
01/11:30am 16.0 NW 24 29 992.5 - 4.8 - Partly cloudy 10 - - - -
01/11:27am 15.8 NW 24 33 992.6 - 4.8 - Partly cloudy 10 - - - -
01/11:10am 15.8 NNW 24 33 993.1 - 4.8 - Partly cloudy 7 - - - -
01/11:05am 15.1 NNW 25 33 993.1 - 4.8 - Partly cloudy 10 - - - -
01/11:00am 15.8 NNW 25 30 993.2 - 4.8 - Partly cloudy 10 - - - -
01/10:58am 16.0 NNW 25 32 993.3 - 4.8 - Partly cloudy 10 - - - -
01/10:55am 16.0 NNW 25 32 993.5 - 4.8 - Partly cloudy 10 - - - -
01/10:42am 14.4 NNW 24 34 994.2 - 4.8 - Partly cloudy 4 - - - -
01/10:38am 14.5 NNW 26 33 994.4 - 4.2 - Partly cloudy 6 - - - -
01/10:30am 15.6 NNW 27 34 994.6 - 4.2 - Partly cloudy 10 - - - -
01/10:06am 14.0 NNW 17 29 995.4 - 4.0 - Partly cloudy 10 - - - -
01/10:00am 13.5 N 15 20 995.9 - 4.0 - Partly cloudy 10 - - - -
01/09:53am 12.7 NNW 18 25 996.1 - 4.0 - Partly cloudy 10 - - - -
01/09:42am 12.2 NNW 22 32 996.3 - 4.0 - Partly cloudy 5 - - - -
01/09:34am 10.8 NNW 28 50 996.4 - 4.0 - Partly cloudy 3 - - - -
01/09:31am 10.5 N 27 50 995.8 - 1.8 - Partly cloudy 5 - - - -
01/09:30am 12.4 N 25 48 996.1 - 0.4 - Partly cloudy 10 - - - -
01/09:29am 16.2 N 23 36 996.1 - 0.0 - Partly cloudy 10 - - - -
01/09:00am 15.9 N 22 29 997.0 - 13.8 Drizzle Cloudy 10 - - - -
01/08:30am 15.1 N 13 20 997.4 - 13.8 - Partly cloudy 10 - - - -
01/08:29am 15.0 N 13 20 997.4 - 13.8 - Partly cloudy 10 - - - -
01/08:17am 14.5 NNE 6 9 997.9 - 13.8 - Partly cloudy 10 - - - -
01/08:00am 13.6 ENE 4 6 997.7 - 13.8 - Partly cloudy 10 - - - -
01/07:48am 13.6 ESE 8 14 997.5 - 13.8 - Partly cloudy 10 - - - -
01/07:37am 13.7 E 6 14 997.1 - 13.6 - Partly cloudy 6 - - - -
01/07:30am 14.0 NW 4 7 999.1 - 13.2 - Partly cloudy 6 - - - -
01/07:29am 14.0 NW 5 8 999.4 - 13.0 - Partly cloudy 6 - - - -
01/07:00am 14.1 WNW 12 15 999.6 - 11.0 - Partly cloudy 9 - - - -
01/06:33am 14.4 WNW 15 21 1000.1 - 9.0 - Partly cloudy 10 - - - -
01/06:30am 14.4 WNW 16 21 999.8 - 8.8 - Partly cloudy 9 - - - -
01/06:17am 15.1 NW 17 21 999.8 - 8.4 - Partly cloudy 6 - - - -
01/06:00am 15.3 NW 20 25 1000.0 - 7.6 Rain Cloudy 10 - - - -
01/05:30am 16.0 NW 21 27 1000.1 - 7.2 - Partly cloudy 10 - - - -
01/05:19am 16.8 N 19 32 1000.1 - 7.2 - Partly cloudy 10 - - - -
01/05:00am 18.2 NNE 16 20 999.4 - 7.2 - Partly cloudy 10 - - - -
01/04:30am 18.3 NNE 17 21 1000.2 - 7.2 - Partly cloudy 10 - - - -
01/04:00am 18.0 NNE 16 19 1000.9 - 7.2 - - 10 - - - -
01/03:30am 17.8 NNE 15 18 1001.5 - 7.2 - - 10 - - - -
01/03:00am 17.5 NE 13 15 1002.3 - 7.2 - - 10 - - - -
01/02:30am 16.9 NE 8 13 1002.9 - 7.2 - Partly cloudy 10 - - - -
01/02:00am 15.3 SE 4 6 1003.7 - 7.2 - Partly cloudy 10 - - - -
01/01:30am 15.4 SE 3 5 1004.3 - 7.2 - Partly cloudy 10 - - - -
01/01:00am 16.4 SW 3 5 1005.2 - 7.2 - - 10 - - - -

Other Formats:

Comma delimited format used in spreadsheet applications
http://www.bom.gov.au/fwo/IDT60701/IDT60701.95960.axf

JavaScript Object Notation format (JSON) in row-major order
http://www.bom.gov.au/fwo/IDT60701/IDT60701.95960.json